createdAt,value
2022-08-22T00:02:32.990Z,15.56
2022-08-22T00:02:42.243Z,16.60
2022-08-22T00:02:54.637Z,15.84
2022-08-22T00:02:54.722Z,15.78
2022-08-22T00:05:24.321Z,15.56
2022-08-22T00:08:07.746Z,15.56
2022-08-22T00:10:54.710Z,15.55
2022-08-22T00:13:35.453Z,15.55
2022-08-22T00:16:14.347Z,15.55
2022-08-22T00:18:52.901Z,15.56
2022-08-22T00:21:30.834Z,15.56
2022-08-22T00:24:16.486Z,15.56
2022-08-22T00:26:54.901Z,15.56
2022-08-22T00:29:34.882Z,15.57
2022-08-22T00:32:13.642Z,15.60
2022-08-22T00:34:57.294Z,15.61
2022-08-22T00:37:34.582Z,15.63
2022-08-22T00:40:21.536Z,15.64
2022-08-22T00:43:17.139Z,15.65
2022-08-22T00:46:10.556Z,15.65
2022-08-22T00:48:59.375Z,15.66
2022-08-22T00:52:16.477Z,15.67
2022-08-22T00:55:08.137Z,15.70
2022-08-22T00:57:56.064Z,15.68
2022-08-22T01:00:35.064Z,15.66
2022-08-22T01:03:41.194Z,15.63
2022-08-22T01:06:31.589Z,15.61
2022-08-22T01:09:15.676Z,15.62
2022-08-22T01:12:05.498Z,15.60
2022-08-22T01:14:47.154Z,15.60
2022-08-22T01:17:45.402Z,15.60
2022-08-22T01:20:54.224Z,15.61
2022-08-22T01:23:58.086Z,15.63
2022-08-22T01:30:17.949Z,15.65
2022-08-22T01:33:28.659Z,15.62
2022-08-22T01:36:30.755Z,15.62
2022-08-22T01:39:26.287Z,15.60
2022-08-22T01:42:21.383Z,15.58
2022-08-22T01:45:15.219Z,15.57
2022-08-22T01:47:54.854Z,15.55
2022-08-22T01:50:34.057Z,15.53
2022-08-22T01:53:11.586Z,15.52
2022-08-22T01:55:53.455Z,15.50
2022-08-22T01:58:30.002Z,15.48
2022-08-22T02:01:14.355Z,15.46
2022-08-22T02:04:01.423Z,15.45
2022-08-22T02:06:46.217Z,15.46
2022-08-22T02:09:35.676Z,15.46
2022-08-22T02:12:27.559Z,15.45
2022-08-22T02:15:09.211Z,15.46
2022-08-22T02:18:01.019Z,15.48
2022-08-22T02:20:39.440Z,15.49
2022-08-22T02:23:23.241Z,15.49
2022-08-22T02:26:10.472Z,15.49
2022-08-22T02:28:56.741Z,15.48
2022-08-22T02:31:40.297Z,15.49
2022-08-22T02:34:31.388Z,15.49
2022-08-22T02:37:14.262Z,15.50
2022-08-22T02:39:52.875Z,15.49
2022-08-22T02:42:38.139Z,15.50
2022-08-22T02:45:24.009Z,15.50
2022-08-22T02:48:02.402Z,15.47
2022-08-22T02:50:44.172Z,15.45
2022-08-22T02:53:21.437Z,15.44
2022-08-22T02:56:02.153Z,15.42
2022-08-22T02:58:45.839Z,15.41
2022-08-22T03:01:34.600Z,15.41
2022-08-22T03:04:27.025Z,15.40
2022-08-22T03:07:11.789Z,15.40
2022-08-22T03:09:49.831Z,15.39
2022-08-22T03:12:29.195Z,15.38
2022-08-22T03:15:09.017Z,15.37
2022-08-22T03:17:55.340Z,15.38
2022-08-22T03:20:47.159Z,15.38
2022-08-22T03:23:34.408Z,15.38
2022-08-22T03:26:14.795Z,15.39
2022-08-22T03:28:59.144Z,15.38
2022-08-22T03:31:34.303Z,15.37
2022-08-22T03:34:22.666Z,15.34
2022-08-22T03:37:13.002Z,15.33
2022-08-22T03:39:56.423Z,15.32
2022-08-22T03:43:04.480Z,15.31
2022-08-22T03:46:06.310Z,15.29
2022-08-22T03:49:29.376Z,15.25
2022-08-22T03:52:23.067Z,15.24
2022-08-22T03:55:22.095Z,15.22
2022-08-22T03:58:27.571Z,15.21
2022-08-22T04:01:33.315Z,15.21
2022-08-22T04:04:34.552Z,15.21
2022-08-22T04:07:31.699Z,15.22
2022-08-22T04:10:26.713Z,15.22
2022-08-22T04:13:26.290Z,15.22
2022-08-22T04:16:26.436Z,15.21
2022-08-22T04:19:21.392Z,15.19
2022-08-22T04:22:15.820Z,15.17
2022-08-22T04:24:57.465Z,15.15
2022-08-22T04:27:35.318Z,15.14
2022-08-22T04:30:29.960Z,15.12
2022-08-22T04:33:11.037Z,15.13
2022-08-22T04:35:47.610Z,15.13
2022-08-22T04:38:28.173Z,15.13
2022-08-22T04:41:06.867Z,15.15
2022-08-22T04:43:44.558Z,15.16
2022-08-22T04:46:25.978Z,15.19
2022-08-22T04:49:16.168Z,15.21
2022-08-22T04:51:58.652Z,15.23
2022-08-22T04:54:51.127Z,15.25
2022-08-22T04:57:33.377Z,15.24
2022-08-22T05:00:10.702Z,15.23
2022-08-22T05:02:49.146Z,15.23
2022-08-22T05:05:25.841Z,15.25
2022-08-22T05:08:00.998Z,15.26
2022-08-22T05:10:41.199Z,15.27
2022-08-22T05:13:19.333Z,15.27
2022-08-22T05:16:03.187Z,15.26
2022-08-22T05:18:42.823Z,15.25
2022-08-22T05:21:18.138Z,15.24
2022-08-22T05:23:55.822Z,15.24
2022-08-22T05:26:30.517Z,15.24
2022-08-22T05:29:08.197Z,15.24
2022-08-22T05:31:47.692Z,15.23
2022-08-22T05:34:23.943Z,15.21
2022-08-22T05:37:01.262Z,15.20
2022-08-22T05:39:34.458Z,15.20
2022-08-22T05:42:14.208Z,15.19
2022-08-22T05:44:47.066Z,15.19
2022-08-22T05:47:24.815Z,15.20
2022-08-22T05:50:03.039Z,15.22
2022-08-22T05:52:48.428Z,15.23
2022-08-22T05:55:28.493Z,15.25
2022-08-22T05:58:14.443Z,15.27
2022-08-22T06:00:53.018Z,15.29
2022-08-22T06:03:33.001Z,15.32
2022-08-22T06:06:11.672Z,15.35
2022-08-22T06:08:49.200Z,15.36
2022-08-22T06:11:33.658Z,15.37
2022-08-22T06:14:14.549Z,15.39
2022-08-22T06:16:52.445Z,15.43
2022-08-22T06:19:25.301Z,15.44
2022-08-22T06:21:58.181Z,15.46
2022-08-22T06:24:34.002Z,15.48
2022-08-22T06:27:10.448Z,15.49
2022-08-22T06:29:46.858Z,15.53
2022-08-22T06:32:27.906Z,15.57
2022-08-22T06:35:23.368Z,15.64
2022-08-22T06:37:59.493Z,15.70
2022-08-22T06:40:32.432Z,15.77
2022-08-22T06:43:06.487Z,15.81
2022-08-22T06:45:40.758Z,15.84
2022-08-22T06:48:20.433Z,15.89
2022-08-22T06:50:58.651Z,15.92
2022-08-22T06:53:37.242Z,15.97
2022-08-22T06:56:19.962Z,15.99
2022-08-22T06:58:55.645Z,16.00
2022-08-22T07:01:32.137Z,16.02
2022-08-22T07:04:10.426Z,16.07
2022-08-22T07:06:45.505Z,16.08
2022-08-22T07:09:27.074Z,16.08
2022-08-22T07:12:02.110Z,16.10
2022-08-22T07:14:41.219Z,16.11
2022-08-22T07:17:22.217Z,16.10
2022-08-22T07:20:04.303Z,16.11
2022-08-22T07:22:36.673Z,16.12
2022-08-22T07:25:10.681Z,16.13
2022-08-22T07:28:01.226Z,16.16
2022-08-22T07:30:47.043Z,16.22
2022-08-22T07:33:36.014Z,16.27
2022-08-22T07:36:18.898Z,16.32
2022-08-22T07:39:03.034Z,16.36
2022-08-22T07:41:55.152Z,16.39
2022-08-22T07:44:32.318Z,16.41
2022-08-22T07:47:10.595Z,16.42
2022-08-22T07:49:50.705Z,16.41
2022-08-22T07:52:25.039Z,16.40
2022-08-22T07:55:02.293Z,16.40
2022-08-22T07:57:39.193Z,16.39
2022-08-22T08:00:17.139Z,16.38
2022-08-22T08:02:54.775Z,16.37
2022-08-22T08:05:29.597Z,16.37
2022-08-22T08:08:06.513Z,16.37
2022-08-22T08:10:41.351Z,16.36
2022-08-22T08:13:20.280Z,16.36
2022-08-22T08:15:53.229Z,16.36
2022-08-22T08:18:28.828Z,16.36
2022-08-22T08:21:04.048Z,16.37
2022-08-22T08:23:44.110Z,16.35
2022-08-22T08:26:19.324Z,16.36
2022-08-22T08:28:55.974Z,16.36
2022-08-22T08:31:35.359Z,16.36
2022-08-22T08:34:10.044Z,16.36
2022-08-22T08:36:51.850Z,16.37
2022-08-22T08:39:28.606Z,16.38
2022-08-22T08:43:09.009Z,16.42
2022-08-22T08:45:59.184Z,16.48
2022-08-22T08:48:56.933Z,16.53
2022-08-22T08:51:49.026Z,16.58
2022-08-22T08:54:55.727Z,16.66
2022-08-22T08:57:46.733Z,16.73
2022-08-22T09:00:29.074Z,16.79
2022-08-22T09:03:11.766Z,16.84
2022-08-22T09:05:58.600Z,16.87
2022-08-22T09:08:57.542Z,16.91
2022-08-22T09:12:18.766Z,16.92
2022-08-22T09:15:22.082Z,16.92
2022-08-22T09:18:19.057Z,16.91
2022-08-22T09:21:11.435Z,16.94
2022-08-22T09:24:08.872Z,16.98
2022-08-22T09:26:50.150Z,17.00
2022-08-22T09:29:54.446Z,17.00
2022-08-22T09:32:35.873Z,16.99
2022-08-22T09:35:14.661Z,17.00
2022-08-22T09:37:59.706Z,17.02
2022-08-22T09:40:41.541Z,17.03
2022-08-22T09:43:21.480Z,17.05
2022-08-22T09:46:08.369Z,17.09
2022-08-22T09:49:06.905Z,17.13
2022-08-22T09:51:46.106Z,17.18
2022-08-22T09:54:31.654Z,17.19
2022-08-22T09:57:18.683Z,17.17
2022-08-22T10:00:17.383Z,17.14
2022-08-22T10:03:05.859Z,17.10
2022-08-22T10:05:47.612Z,17.06
2022-08-22T10:08:37.961Z,17.02
2022-08-22T10:11:21.085Z,16.99
2022-08-22T10:14:01.504Z,16.97
2022-08-22T10:16:54.471Z,16.93
2022-08-22T10:19:34.157Z,16.88
2022-08-22T10:22:31.505Z,16.86
2022-08-22T10:25:33.242Z,16.85
2022-08-22T10:28:23.168Z,16.85
2022-08-22T10:31:15.902Z,16.86
2022-08-22T10:33:58.417Z,16.88
2022-08-22T10:36:37.603Z,16.89
2022-08-22T10:39:14.576Z,16.90
2022-08-22T10:42:01.857Z,16.91
2022-08-22T10:44:45.993Z,16.93
2022-08-22T10:47:28.079Z,16.95
2022-08-22T10:50:10.756Z,16.98
2022-08-22T10:52:49.784Z,16.97
2022-08-22T10:55:26.707Z,16.98
2022-08-22T10:58:09.033Z,17.00
2022-08-22T11:00:50.756Z,17.02
2022-08-22T11:03:33.945Z,17.02
2022-08-22T11:06:13.530Z,17.00
2022-08-22T11:09:11.036Z,16.99
2022-08-22T11:11:48.210Z,17.00
2022-08-22T11:14:59.704Z,16.99
2022-08-22T11:18:13.006Z,16.95
2022-08-22T11:20:57.453Z,16.95
2022-08-22T11:23:40.792Z,16.95
2022-08-22T11:26:38.312Z,16.98
2022-08-22T11:29:35.384Z,17.00
2022-08-22T11:32:17.572Z,17.02
2022-08-22T11:35:00.398Z,17.04
2022-08-22T11:37:47.748Z,17.04
2022-08-22T11:40:36.911Z,17.03
2022-08-22T11:43:28.349Z,17.02
2022-08-22T11:46:19.034Z,17.00
2022-08-22T11:49:06.487Z,16.99
2022-08-22T11:52:04.393Z,16.99
2022-08-22T11:54:48.654Z,16.98
2022-08-22T11:57:31.375Z,16.96
2022-08-22T12:00:20.588Z,16.95
2022-08-22T12:03:23.177Z,16.96
2022-08-22T12:06:02.423Z,16.97
2022-08-22T12:09:22.166Z,16.97
2022-08-22T12:12:15.080Z,16.98
2022-08-22T12:14:57.968Z,17.00
2022-08-22T12:18:01.258Z,17.02
2022-08-22T12:20:54.706Z,17.02
2022-08-22T12:23:53.195Z,17.02
2022-08-22T12:26:35.223Z,17.01
2022-08-22T12:29:33.504Z,17.01
2022-08-22T12:32:34.142Z,17.03
2022-08-22T12:35:30.201Z,17.06
2022-08-22T12:38:27.865Z,17.09
2022-08-22T12:41:27.779Z,17.11
2022-08-22T12:44:26.295Z,17.12
2022-08-22T12:47:13.928Z,17.12
2022-08-22T12:50:10.185Z,17.09
2022-08-22T12:53:04.320Z,17.10
2022-08-22T12:56:10.270Z,17.10
2022-08-22T12:59:01.207Z,17.06
2022-08-22T13:01:43.296Z,17.04
2022-08-22T13:04:33.456Z,17.04
2022-08-22T13:07:19.630Z,17.05
2022-08-22T13:09:59.426Z,17.09
2022-08-22T13:12:35.239Z,17.11
2022-08-22T13:15:28.496Z,17.13
2022-08-22T13:18:29.220Z,17.13
2022-08-22T13:21:02.257Z,17.14
2022-08-22T13:23:39.960Z,17.15
2022-08-22T13:26:32.070Z,17.17
2022-08-22T13:29:25.769Z,17.18
2022-08-22T13:32:02.477Z,17.20
2022-08-22T13:34:43.632Z,17.23
2022-08-22T13:37:20.278Z,17.26
2022-08-22T13:40:06.967Z,17.28
2022-08-22T13:42:48.450Z,17.30
2022-08-22T13:45:26.845Z,17.30
2022-08-22T13:48:04.129Z,17.32
2022-08-22T13:51:05.611Z,17.33
2022-08-22T13:54:00.763Z,17.33
2022-08-22T13:57:11.076Z,17.34
2022-08-22T13:59:51.831Z,17.34
2022-08-22T14:02:43.392Z,17.33
2022-08-22T14:05:25.069Z,17.35
2022-08-22T14:08:16.411Z,17.37
2022-08-22T14:11:10.478Z,17.38
2022-08-22T14:13:48.185Z,17.40
2022-08-22T14:16:29.861Z,17.42
2022-08-22T14:19:06.289Z,17.44
2022-08-22T14:21:44.394Z,17.45
2022-08-22T14:24:26.886Z,17.48
2022-08-22T14:27:06.438Z,17.52
2022-08-22T14:29:50.449Z,17.54
2022-08-22T14:32:43.580Z,17.57
2022-08-22T14:35:34.991Z,17.59
2022-08-22T14:38:35.324Z,17.60
2022-08-22T14:41:22.566Z,17.60
2022-08-22T14:44:01.548Z,17.63
2022-08-22T14:46:44.229Z,17.66
2022-08-22T14:49:38.199Z,17.70
2022-08-22T14:52:29.712Z,17.74
2022-08-22T14:55:22.027Z,17.78
2022-08-22T14:58:00.611Z,17.80
2022-08-22T15:00:38.653Z,17.82
2022-08-22T15:03:32.341Z,17.84
2022-08-22T15:06:09.608Z,17.88
2022-08-22T15:08:53.184Z,17.91
2022-08-22T15:11:31.945Z,17.93
2022-08-22T15:14:08.030Z,17.96
2022-08-22T15:16:51.739Z,17.99
2022-08-22T15:19:28.905Z,18.01
2022-08-22T15:22:13.862Z,18.02
2022-08-22T15:24:52.832Z,18.04
2022-08-22T15:27:30.570Z,18.06
2022-08-22T15:30:16.578Z,18.08
2022-08-22T15:32:53.394Z,18.10
2022-08-22T15:35:33.500Z,18.12
2022-08-22T15:38:08.947Z,18.14
2022-08-22T15:40:45.858Z,18.16
2022-08-22T15:43:25.070Z,18.19
2022-08-22T15:46:18.044Z,18.22
2022-08-22T15:49:00.229Z,18.25
2022-08-22T15:51:39.874Z,18.26
2022-08-22T15:54:24.203Z,18.28
2022-08-22T15:57:16.448Z,18.30
2022-08-22T15:59:57.424Z,18.31
2022-08-22T16:02:35.776Z,18.32
2022-08-22T16:05:23.130Z,18.31
2022-08-22T16:08:05.954Z,18.32
2022-08-22T16:10:43.818Z,18.34
2022-08-22T16:13:39.878Z,18.34
2022-08-22T16:16:35.480Z,18.35
2022-08-22T16:19:19.144Z,18.35
2022-08-22T16:22:12.824Z,18.35
2022-08-22T16:25:06.809Z,18.34
2022-08-22T16:27:57.493Z,18.34
2022-08-22T16:30:39.825Z,18.35
2022-08-22T16:33:18.189Z,18.35
2022-08-22T16:36:25.342Z,18.33
2022-08-22T16:38:59.605Z,18.32
2022-08-22T16:41:36.897Z,18.30
2022-08-22T16:44:41.644Z,18.29
2022-08-22T16:47:18.298Z,18.27
2022-08-22T16:50:05.656Z,18.25
2022-08-22T16:53:06.006Z,18.23
2022-08-22T16:55:51.138Z,18.22
2022-08-22T16:58:56.650Z,18.20
2022-08-22T17:02:03.485Z,18.19
2022-08-22T17:04:46.319Z,18.19
2022-08-22T17:07:28.034Z,18.20
2022-08-22T17:10:20.661Z,18.20
2022-08-22T17:13:09.970Z,18.19
2022-08-22T17:15:57.288Z,18.17
2022-08-22T17:18:54.417Z,18.15
2022-08-22T17:21:38.368Z,18.13
2022-08-22T17:24:33.622Z,18.12
2022-08-22T17:27:19.148Z,18.08
2022-08-22T17:30:05.072Z,18.05
2022-08-22T17:32:59.052Z,18.02
2022-08-22T17:35:46.106Z,18.00
2022-08-22T17:38:28.408Z,17.99
2022-08-22T17:41:11.975Z,17.99
2022-08-22T17:43:56.503Z,17.98
2022-08-22T17:46:51.297Z,17.97
2022-08-22T17:49:36.698Z,17.97
2022-08-22T17:52:15.175Z,17.96
2022-08-22T17:54:53.706Z,17.94
2022-08-22T17:57:31.709Z,17.93
2022-08-22T18:00:10.297Z,17.91
2022-08-22T18:02:52.306Z,17.88
2022-08-22T18:05:29.466Z,17.87
2022-08-22T18:08:37.607Z,17.85
2022-08-22T18:11:10.986Z,17.83
2022-08-22T18:13:53.283Z,17.85
2022-08-22T18:16:27.118Z,17.84
2022-08-22T18:19:08.375Z,17.82
2022-08-22T18:21:49.580Z,17.82
2022-08-22T18:24:29.096Z,17.82
2022-08-22T18:27:07.544Z,17.82
2022-08-22T18:29:48.618Z,17.83
2022-08-22T18:32:23.298Z,17.82
2022-08-22T18:35:06.729Z,17.82
2022-08-22T18:37:56.421Z,17.81
2022-08-22T18:40:50.099Z,17.80
2022-08-22T18:43:37.629Z,17.78
2022-08-22T18:46:43.014Z,17.80
2022-08-22T18:49:45.081Z,17.81
2022-08-22T18:52:38.315Z,17.83
2022-08-22T18:55:55.394Z,17.82
2022-08-22T18:58:52.534Z,17.81
2022-08-22T19:01:53.596Z,17.80
2022-08-22T19:04:44.392Z,17.79
2022-08-22T19:07:36.603Z,17.78
2022-08-22T19:10:36.740Z,17.77
2022-08-22T19:13:25.718Z,17.75
2022-08-22T19:16:14.626Z,17.76
2022-08-22T19:18:59.750Z,17.75
2022-08-22T19:21:51.959Z,17.75
2022-08-22T19:25:02.815Z,17.75
2022-08-22T19:27:44.273Z,17.74
2022-08-22T19:30:46.864Z,17.74
2022-08-22T19:33:34.297Z,17.74
2022-08-22T19:36:33.339Z,17.74
2022-08-22T19:39:17.880Z,17.75
2022-08-22T19:41:59.115Z,17.76
2022-08-22T19:44:49.444Z,17.77
2022-08-22T19:47:35.252Z,17.78
2022-08-22T19:50:25.252Z,17.79
2022-08-22T19:53:10.143Z,17.81
2022-08-22T19:55:58.009Z,17.82
2022-08-22T19:58:41.624Z,17.83
2022-08-22T20:01:44.972Z,17.83
2022-08-22T20:04:59.642Z,17.84
2022-08-22T20:07:45.360Z,17.85
2022-08-22T20:10:32.356Z,17.86
2022-08-22T20:13:08.751Z,17.86
2022-08-22T20:16:18.024Z,17.87
2022-08-22T20:19:18.552Z,17.85
2022-08-22T20:21:58.260Z,17.85
2022-08-22T20:24:40.175Z,17.86
2022-08-22T20:27:18.867Z,17.88
2022-08-22T20:30:03.364Z,17.89
2022-08-22T20:32:40.817Z,17.90
2022-08-22T20:35:18.889Z,17.92
2022-08-22T20:38:07.477Z,17.93
2022-08-22T20:40:57.301Z,17.95
2022-08-22T20:43:35.443Z,17.95
2022-08-22T20:46:24.587Z,17.96
2022-08-22T20:48:58.617Z,17.97
2022-08-22T20:51:34.092Z,18.00
2022-08-22T20:54:21.060Z,18.01
2022-08-22T20:56:55.758Z,18.04
2022-08-22T20:59:36.087Z,18.04
2022-08-22T21:02:17.100Z,18.04
2022-08-22T21:05:01.284Z,18.04
2022-08-22T21:07:36.865Z,18.04
2022-08-22T21:10:35.943Z,18.05
2022-08-22T21:13:13.478Z,18.06
2022-08-22T21:15:48.985Z,18.06
2022-08-22T21:18:31.904Z,18.06
2022-08-22T21:21:17.448Z,18.06
2022-08-22T21:23:55.488Z,18.07
2022-08-22T21:26:33.352Z,18.09
2022-08-22T21:29:08.218Z,18.10
2022-08-22T21:31:47.781Z,18.11
2022-08-22T21:34:23.348Z,18.12
2022-08-22T21:36:57.980Z,18.13
2022-08-22T21:39:33.467Z,18.14
2022-08-22T21:42:22.153Z,18.15
2022-08-22T21:44:59.967Z,18.16
2022-08-22T21:47:35.212Z,18.16
2022-08-22T21:50:15.594Z,18.15
2022-08-22T21:53:10.079Z,18.14
2022-08-22T21:55:47.124Z,18.15
2022-08-22T21:58:35.453Z,18.14
2022-08-22T22:01:30.475Z,18.12
2022-08-22T22:04:03.934Z,18.11
2022-08-22T22:06:36.361Z,18.11
2022-08-22T22:09:12.045Z,18.11
2022-08-22T22:11:47.054Z,18.14
2022-08-22T22:14:19.206Z,18.16
2022-08-22T22:16:51.291Z,18.18
2022-08-22T22:19:23.684Z,18.19
2022-08-22T22:21:56.322Z,18.19
2022-08-22T22:24:28.565Z,18.21
2022-08-22T22:27:01.105Z,18.20
2022-08-22T22:29:33.540Z,18.20
2022-08-22T22:32:06.272Z,18.21
2022-08-22T22:34:39.263Z,18.22
2022-08-22T22:37:14.790Z,18.23
2022-08-22T22:39:47.326Z,18.24
2022-08-22T22:42:19.639Z,18.25
2022-08-22T22:44:51.978Z,18.24
2022-08-22T22:47:28.437Z,18.24
2022-08-22T22:50:00.601Z,18.25
2022-08-22T22:52:32.788Z,18.25
2022-08-22T22:55:12.242Z,18.25
2022-08-22T22:57:58.515Z,18.25
2022-08-22T23:00:34.480Z,18.26
2022-08-22T23:03:07.585Z,18.26
2022-08-22T23:05:39.697Z,18.28
2022-08-22T23:08:11.913Z,18.29
2022-08-22T23:10:46.441Z,18.29
2022-08-22T23:13:18.780Z,18.30
2022-08-22T23:15:51.093Z,18.31
2022-08-22T23:18:30.336Z,18.31
2022-08-22T23:21:14.618Z,18.32
2022-08-22T23:23:49.165Z,18.31
2022-08-22T23:26:21.373Z,18.33
2022-08-22T23:28:53.464Z,18.36
2022-08-22T23:31:32.765Z,18.38
2022-08-22T23:34:07.786Z,18.39
2022-08-22T23:36:40.656Z,18.41
2022-08-22T23:39:14.318Z,18.39
2022-08-22T23:41:47.398Z,18.36
2022-08-22T23:44:22.828Z,18.33
2022-08-22T23:46:55.740Z,18.31
2022-08-22T23:49:28.279Z,18.29
2022-08-22T23:52:01.104Z,18.26
2022-08-22T23:54:33.961Z,18.24
2022-08-22T23:57:11.811Z,18.22
2022-08-22T23:59:47.986Z,18.19
